createdAt,value
2018-06-02T00:00:11.348Z,990.93
2018-06-02T00:01:32.090Z,990.93
2018-06-02T00:02:25.223Z,990.97
2018-06-02T00:03:32.021Z,990.92
2018-06-02T00:04:38.852Z,990.89
2018-06-02T00:05:45.647Z,990.85
2018-06-02T00:06:52.486Z,990.85
2018-06-02T00:07:59.365Z,990.85
2018-06-02T00:09:06.176Z,990.88
2018-06-02T00:10:13.000Z,990.83
2018-06-02T00:11:19.745Z,990.85
2018-06-02T00:12:26.570Z,990.83
2018-06-02T00:13:33.369Z,990.81
2018-06-02T00:14:40.356Z,990.80
2018-06-02T00:15:47.203Z,990.83
2018-06-02T00:16:54.101Z,990.82
2018-06-02T00:18:00.929Z,990.85
2018-06-02T00:19:07.835Z,990.82
2018-06-02T00:20:14.686Z,990.85
2018-06-02T00:21:21.596Z,990.80
2018-06-02T00:22:28.452Z,990.80
2018-06-02T00:23:35.356Z,990.82
2018-06-02T00:24:42.251Z,990.82
2018-06-02T00:25:49.096Z,990.84
2018-06-02T00:26:55.927Z,990.88
2018-06-02T00:28:02.873Z,990.85
2018-06-02T00:29:09.723Z,990.84
2018-06-02T00:30:16.624Z,990.80
2018-06-02T00:31:23.486Z,990.84
2018-06-02T00:32:30.387Z,990.80
2018-06-02T00:33:37.177Z,990.79
2018-06-02T00:34:43.974Z,990.85
2018-06-02T00:35:50.811Z,990.79
2018-06-02T00:36:57.655Z,990.85
2018-06-02T00:38:04.828Z,990.89
2018-06-02T00:39:11.646Z,990.86
2018-06-02T00:40:18.463Z,990.86
2018-06-02T00:41:25.300Z,990.84
2018-06-02T00:42:32.177Z,990.84
2018-06-02T00:43:38.987Z,990.81
2018-06-02T00:44:45.793Z,990.77
2018-06-02T00:45:52.623Z,990.80
2018-06-02T00:46:59.455Z,990.84
2018-06-02T00:48:06.267Z,990.78
2018-06-02T00:49:13.112Z,990.76
2018-06-02T00:50:19.924Z,990.75
2018-06-02T00:51:26.708Z,990.79
2018-06-02T00:52:33.583Z,990.83
2018-06-02T00:53:40.425Z,990.85
2018-06-02T00:54:47.313Z,990.78
2018-06-02T00:55:54.329Z,990.82
2018-06-02T00:57:01.206Z,990.84
2018-06-02T00:58:08.057Z,990.81
2018-06-02T00:59:14.956Z,990.76
2018-06-02T01:00:21.799Z,990.79
2018-06-02T01:01:28.721Z,990.86
2018-06-02T01:02:35.572Z,990.82
2018-06-02T01:03:42.459Z,990.76
2018-06-02T01:04:49.282Z,990.81
2018-06-02T01:05:56.098Z,990.84
2018-06-02T01:07:02.929Z,990.85
2018-06-02T01:08:09.735Z,990.97
2018-06-02T01:09:16.603Z,990.83
2018-06-02T01:10:23.495Z,990.91
2018-06-02T01:11:30.354Z,990.87
2018-06-02T01:12:37.207Z,990.97
2018-06-02T01:13:44.280Z,990.90
2018-06-02T01:14:51.099Z,990.90
2018-06-02T01:15:58.155Z,990.89
2018-06-02T01:17:05.032Z,990.91
2018-06-02T01:18:11.949Z,990.85
2018-06-02T01:19:18.768Z,990.96
2018-06-02T01:20:25.613Z,990.83
2018-06-02T01:21:32.519Z,990.92
2018-06-02T01:22:39.666Z,990.91
2018-06-02T01:23:46.516Z,990.92
2018-06-02T01:24:53.315Z,990.89
2018-06-02T01:26:00.112Z,990.89
2018-06-02T01:27:06.970Z,990.84
2018-06-02T01:28:14.128Z,990.87
2018-06-02T01:29:20.926Z,990.89
2018-06-02T01:30:27.792Z,990.89
2018-06-02T01:31:34.654Z,990.91
2018-06-02T01:32:41.462Z,990.85
2018-06-02T01:33:48.278Z,990.90
2018-06-02T01:34:55.083Z,990.91
2018-06-02T01:36:01.859Z,990.93
2018-06-02T01:37:08.800Z,990.98
2018-06-02T01:38:15.571Z,990.91
2018-06-02T01:39:22.334Z,990.91
2018-06-02T01:40:29.177Z,990.89
2018-06-02T01:41:35.970Z,990.89
2018-06-02T01:42:42.766Z,990.88
2018-06-02T01:43:49.547Z,990.96
2018-06-02T01:44:56.339Z,990.90
2018-06-02T01:46:03.115Z,990.88
2018-06-02T01:47:09.935Z,990.85
2018-06-02T01:48:16.774Z,990.83
2018-06-02T01:49:23.643Z,990.83
2018-06-02T01:50:30.459Z,990.82
2018-06-02T01:51:37.240Z,990.83
2018-06-02T01:52:44.076Z,990.84
2018-06-02T01:53:50.841Z,990.79
2018-06-02T01:54:57.630Z,990.87
2018-06-02T01:56:04.485Z,990.81
2018-06-02T01:57:11.402Z,990.84
2018-06-02T01:58:18.218Z,990.80
2018-06-02T01:59:25.068Z,990.83
2018-06-02T02:00:31.895Z,990.80
2018-06-02T02:01:38.734Z,990.79
2018-06-02T02:02:45.664Z,990.84
2018-06-02T02:03:52.534Z,990.79
2018-06-02T02:04:59.386Z,990.86
2018-06-02T02:06:06.220Z,990.82
2018-06-02T02:07:13.406Z,990.81
2018-06-02T02:08:20.238Z,990.87
2018-06-02T02:09:27.106Z,990.81
2018-06-02T02:10:33.992Z,990.86
2018-06-02T02:11:40.814Z,990.81
2018-06-02T02:12:47.612Z,990.82
2018-06-02T02:13:54.436Z,990.85
2018-06-02T02:15:01.260Z,990.81
2018-06-02T02:16:08.163Z,990.92
2018-06-02T02:17:14.999Z,990.82
2018-06-02T02:18:21.895Z,990.84
2018-06-02T02:19:28.714Z,990.82
2018-06-02T02:20:35.525Z,990.84
2018-06-02T02:21:42.356Z,990.91
2018-06-02T02:22:49.158Z,990.94
2018-06-02T02:24:01.795Z,990.84
2018-06-02T02:25:03.144Z,990.85
2018-06-02T02:26:09.991Z,990.86
2018-06-02T02:27:16.890Z,990.87
2018-06-02T02:28:23.721Z,990.84
2018-06-02T02:29:30.654Z,990.90
2018-06-02T02:30:37.526Z,990.96
2018-06-02T02:31:44.393Z,990.95
2018-06-02T02:32:51.239Z,990.96
2018-06-02T02:33:58.131Z,990.91
2018-06-02T02:35:04.922Z,990.95
2018-06-02T02:36:11.716Z,990.94
2018-06-02T02:37:18.529Z,991.00
2018-06-02T02:38:25.360Z,991.00
2018-06-02T02:39:32.234Z,991.00
2018-06-02T02:40:39.022Z,991.09
2018-06-02T02:41:45.851Z,991.04
2018-06-02T02:42:53.000Z,991.12
2018-06-02T02:43:59.367Z,991.05
2018-06-02T02:45:06.153Z,991.07
2018-06-02T02:46:13.018Z,991.10
2018-06-02T02:47:19.773Z,991.09
2018-06-02T02:48:26.771Z,991.07
2018-06-02T02:49:33.544Z,991.11
2018-06-02T02:50:40.283Z,991.04
2018-06-02T02:51:47.187Z,991.03
2018-06-02T02:52:53.987Z,991.08
2018-06-02T02:54:00.807Z,991.13
2018-06-02T02:55:07.589Z,991.13
2018-06-02T02:56:14.368Z,991.11
2018-06-02T02:57:21.139Z,991.11
2018-06-02T02:58:27.969Z,991.08
2018-06-02T02:59:34.775Z,991.12
2018-06-02T03:00:41.658Z,991.09
2018-06-02T03:01:48.521Z,991.09
2018-06-02T03:02:55.407Z,991.14
2018-06-02T03:04:02.233Z,991.09
2018-06-02T03:05:09.012Z,991.10
2018-06-02T03:06:15.822Z,991.16
2018-06-02T03:07:22.677Z,991.17
2018-06-02T03:08:29.548Z,991.10
2018-06-02T03:09:36.388Z,991.14
2018-06-02T03:10:43.311Z,991.14
2018-06-02T03:11:50.203Z,991.09
2018-06-02T03:12:57.056Z,991.11
2018-06-02T03:14:03.884Z,991.07
2018-06-02T03:15:10.765Z,991.11
2018-06-02T03:16:17.596Z,991.13
2018-06-02T03:17:24.513Z,991.11
2018-06-02T03:18:31.390Z,991.14
2018-06-02T03:19:38.253Z,991.22
2018-06-02T03:20:45.109Z,991.14
2018-06-02T03:21:51.975Z,991.12
2018-06-02T03:22:58.810Z,991.15
2018-06-02T03:24:05.749Z,991.16
2018-06-02T03:25:12.598Z,991.19
2018-06-02T03:26:19.481Z,991.18
2018-06-02T03:27:26.300Z,991.13
2018-06-02T03:28:33.220Z,991.16
2018-06-02T03:29:40.075Z,991.19
2018-06-02T03:30:46.951Z,991.19
2018-06-02T03:31:53.744Z,991.12
2018-06-02T03:33:00.532Z,991.18
2018-06-02T03:34:07.353Z,991.21
2018-06-02T03:35:14.143Z,991.19
2018-06-02T03:36:21.049Z,991.23
2018-06-02T03:37:27.853Z,991.16
2018-06-02T03:38:35.166Z,991.18
2018-06-02T03:39:41.932Z,991.20
2018-06-02T03:40:48.815Z,991.21
2018-06-02T03:41:55.655Z,991.16
2018-06-02T03:43:02.504Z,991.23
2018-06-02T03:44:09.443Z,991.21
2018-06-02T03:45:16.248Z,991.25
2018-06-02T03:46:23.184Z,991.28
2018-06-02T03:47:30.004Z,991.23
2018-06-02T03:48:36.929Z,991.23
2018-06-02T03:49:43.849Z,991.33
2018-06-02T03:50:50.689Z,991.31
2018-06-02T03:51:57.574Z,991.32
2018-06-02T03:53:04.440Z,991.33
2018-06-02T03:54:11.412Z,991.30
2018-06-02T03:55:18.237Z,991.36
2018-06-02T03:56:25.064Z,991.40
2018-06-02T03:57:31.883Z,991.32
2018-06-02T03:58:38.699Z,991.31
2018-06-02T03:59:45.552Z,991.34
2018-06-02T04:00:52.396Z,991.41
2018-06-02T04:01:59.291Z,991.39
2018-06-02T04:03:06.059Z,991.39
2018-06-02T04:04:12.868Z,991.43
2018-06-02T04:05:19.671Z,991.31
2018-06-02T04:06:26.475Z,991.43
2018-06-02T04:07:33.272Z,991.34
2018-06-02T04:08:40.080Z,991.31
2018-06-02T04:09:46.844Z,991.38
2018-06-02T04:10:53.664Z,991.35
2018-06-02T04:12:00.558Z,991.41
2018-06-02T04:13:07.319Z,991.43
2018-06-02T04:14:14.181Z,991.48
2018-06-02T04:15:20.996Z,991.46
2018-06-02T04:16:27.819Z,991.40
2018-06-02T04:17:34.614Z,991.42
2018-06-02T04:18:41.458Z,991.53
2018-06-02T04:19:48.271Z,991.39
2018-06-02T04:20:55.074Z,991.37
2018-06-02T04:22:01.859Z,991.38
2018-06-02T04:23:08.672Z,991.31
2018-06-02T04:24:15.451Z,991.49
2018-06-02T04:25:22.211Z,991.38
2018-06-02T04:26:28.971Z,991.45
2018-06-02T04:27:35.715Z,991.43
2018-06-02T04:28:42.983Z,991.53
2018-06-02T04:29:49.539Z,991.45
2018-06-02T04:30:56.350Z,991.45
2018-06-02T04:32:03.174Z,991.46
2018-06-02T04:33:09.978Z,991.49
2018-06-02T04:34:16.930Z,991.56
2018-06-02T04:35:23.771Z,991.42
2018-06-02T04:36:30.665Z,991.50
2018-06-02T04:37:37.427Z,991.41
2018-06-02T04:38:44.202Z,991.44
2018-06-02T04:39:51.058Z,991.50
2018-06-02T04:40:57.847Z,991.45
2018-06-02T04:42:04.611Z,991.40
2018-06-02T04:43:11.452Z,991.48
2018-06-02T04:44:18.296Z,991.52
2018-06-02T04:45:25.094Z,991.49
2018-06-02T04:46:31.844Z,991.47
2018-06-02T04:47:38.707Z,991.49
2018-06-02T04:48:45.572Z,991.49
2018-06-02T04:49:52.363Z,991.51
2018-06-02T04:50:59.139Z,991.52
2018-06-02T04:52:06.566Z,991.50
2018-06-02T04:53:12.716Z,991.44
2018-06-02T04:54:19.592Z,991.49
2018-06-02T04:55:26.464Z,991.45
2018-06-02T04:56:33.260Z,991.50
2018-06-02T04:57:40.171Z,991.49
2018-06-02T04:58:47.047Z,991.47
2018-06-02T04:59:53.882Z,991.43
2018-06-02T05:01:00.696Z,991.49
2018-06-02T05:02:07.539Z,991.48
2018-06-02T05:03:14.321Z,991.52
2018-06-02T05:04:21.121Z,991.56
2018-06-02T05:05:28.039Z,991.52
2018-06-02T05:06:35.043Z,991.56
2018-06-02T05:07:41.876Z,991.52
2018-06-02T05:08:48.782Z,991.52
2018-06-02T05:09:55.659Z,991.52
2018-06-02T05:11:02.530Z,991.45
2018-06-02T05:12:09.523Z,991.54
2018-06-02T05:13:16.341Z,991.51
2018-06-02T05:14:23.395Z,991.45
2018-06-02T05:15:30.155Z,991.50
2018-06-02T05:16:37.147Z,991.53
2018-06-02T05:17:43.959Z,991.51
2018-06-02T05:18:50.882Z,991.51
2018-06-02T05:19:57.963Z,991.55
2018-06-02T05:21:04.843Z,991.46
2018-06-02T05:22:11.663Z,991.46
2018-06-02T05:23:18.497Z,991.52
2018-06-02T05:24:25.318Z,991.48
2018-06-02T05:25:32.115Z,991.45
2018-06-02T05:26:38.947Z,991.50
2018-06-02T05:27:45.791Z,991.48
2018-06-02T05:28:52.623Z,991.45
2018-06-02T05:29:59.555Z,991.50
2018-06-02T05:31:06.489Z,991.53
2018-06-02T05:32:13.492Z,991.48
2018-06-02T05:33:20.228Z,991.53
2018-06-02T05:34:27.094Z,991.56
2018-06-02T05:35:33.962Z,991.57
2018-06-02T05:36:40.778Z,991.55
2018-06-02T05:37:48.012Z,991.57
2018-06-02T05:38:54.495Z,991.66
2018-06-02T05:40:01.489Z,991.57
2018-06-02T05:41:08.550Z,991.58
2018-06-02T05:42:15.143Z,991.63
2018-06-02T05:43:22.050Z,991.59
2018-06-02T05:44:28.872Z,991.61
2018-06-02T05:45:35.807Z,991.52
2018-06-02T05:46:42.570Z,991.54
2018-06-02T05:47:49.390Z,991.49
2018-06-02T05:48:56.128Z,991.45
2018-06-02T05:50:02.970Z,991.49
2018-06-02T05:51:09.718Z,991.48
2018-06-02T05:52:16.462Z,991.47
2018-06-02T05:53:23.212Z,991.47
2018-06-02T05:54:29.990Z,991.50
2018-06-02T05:55:36.862Z,991.43
2018-06-02T05:56:43.854Z,991.51
2018-06-02T05:57:50.627Z,991.56
2018-06-02T05:58:57.381Z,991.54
2018-06-02T06:00:04.139Z,991.43
2018-06-02T06:01:11.168Z,991.46
2018-06-02T06:02:17.970Z,991.47
2018-06-02T06:03:25.862Z,991.43
2018-06-02T06:04:31.619Z,991.45
2018-06-02T06:05:38.444Z,991.46
2018-06-02T06:06:45.258Z,991.44
2018-06-02T06:07:52.094Z,991.40
2018-06-02T06:08:58.872Z,991.38
2018-06-02T06:10:05.770Z,991.41
2018-06-02T06:11:12.857Z,991.43
2018-06-02T06:12:19.780Z,991.43
2018-06-02T06:13:26.612Z,991.44
2018-06-02T06:14:33.376Z,991.45
2018-06-02T06:15:40.283Z,991.41
2018-06-02T06:16:47.194Z,991.35
2018-06-02T06:17:54.096Z,991.39
2018-06-02T06:19:00.903Z,991.38
2018-06-02T06:20:07.794Z,991.39
2018-06-02T06:21:14.643Z,991.28
2018-06-02T06:22:21.499Z,991.40
2018-06-02T06:23:28.982Z,991.36
2018-06-02T06:24:35.020Z,991.32
2018-06-02T06:25:41.796Z,991.31
2018-06-02T06:26:48.682Z,991.39
2018-06-02T06:27:55.512Z,991.31
2018-06-02T06:29:02.358Z,991.30
2018-06-02T06:30:09.096Z,991.27
2018-06-02T06:31:15.860Z,991.32
2018-06-02T06:32:22.579Z,991.29
2018-06-02T06:33:29.330Z,991.35
2018-06-02T06:34:36.101Z,991.32
2018-06-02T06:35:42.875Z,991.30
2018-06-02T06:36:49.685Z,991.32
2018-06-02T06:37:56.431Z,991.24
2018-06-02T06:39:03.196Z,991.23
2018-06-02T06:40:10.052Z,991.29
2018-06-02T06:41:16.815Z,991.35
2018-06-02T06:42:23.575Z,991.25
2018-06-02T06:43:30.427Z,991.37
2018-06-02T06:44:37.317Z,991.35
2018-06-02T06:45:44.160Z,991.36
2018-06-02T06:46:51.012Z,991.34
2018-06-02T06:47:57.875Z,991.36
2018-06-02T06:49:04.685Z,991.38
2018-06-02T06:50:11.517Z,991.38
2018-06-02T06:51:18.288Z,991.41
2018-06-02T06:52:25.072Z,991.43
2018-06-02T06:53:31.832Z,991.42
2018-06-02T06:54:38.667Z,991.44
2018-06-02T06:55:45.754Z,991.49
2018-06-02T06:56:52.594Z,991.40
2018-06-02T06:57:59.520Z,991.42
2018-06-02T06:59:06.301Z,991.42
2018-06-02T07:00:13.078Z,991.41
2018-06-02T07:01:19.886Z,991.40
2018-06-02T07:02:26.611Z,991.43
2018-06-02T07:03:33.389Z,991.40
2018-06-02T07:04:40.231Z,991.38
2018-06-02T07:05:47.075Z,991.42
2018-06-02T07:06:53.831Z,991.42
2018-06-02T07:08:00.621Z,991.43
2018-06-02T07:09:07.471Z,991.43
2018-06-02T07:10:14.367Z,991.40
2018-06-02T07:11:21.332Z,991.44
2018-06-02T07:12:28.129Z,991.46
2018-06-02T07:13:34.944Z,991.48
2018-06-02T07:14:41.796Z,991.49
2018-06-02T07:15:48.530Z,991.53
2018-06-02T07:16:55.292Z,991.45
2018-06-02T07:18:02.393Z,991.45
2018-06-02T07:19:09.183Z,991.41
2018-06-02T07:20:15.964Z,991.41
2018-06-02T07:21:22.780Z,991.35
2018-06-02T07:22:29.707Z,991.37
2018-06-02T07:23:36.512Z,991.40
2018-06-02T07:24:43.278Z,991.37
2018-06-02T07:25:50.055Z,991.37
2018-06-02T07:26:56.847Z,991.32
2018-06-02T07:28:03.637Z,991.32
2018-06-02T07:29:10.481Z,991.30
2018-06-02T07:30:17.541Z,991.31
2018-06-02T07:31:24.295Z,991.29
2018-06-02T07:32:31.090Z,991.36
2018-06-02T07:33:38.074Z,991.28
2018-06-02T07:34:44.882Z,991.32
2018-06-02T07:35:51.703Z,991.31
2018-06-02T07:36:58.528Z,991.28
2018-06-02T07:38:05.381Z,991.27
2018-06-02T07:39:12.123Z,991.26
2018-06-02T07:40:19.019Z,991.26
2018-06-02T07:41:25.875Z,991.25
2018-06-02T07:42:32.728Z,991.30
2018-06-02T07:43:39.543Z,991.31
2018-06-02T07:45:53.455Z,991.31
2018-06-02T07:47:00.115Z,991.30
2018-06-02T07:48:06.996Z,991.31
2018-06-02T07:49:13.830Z,991.28
2018-06-02T07:50:20.766Z,991.28
2018-06-02T07:51:27.659Z,991.34
2018-06-02T07:52:34.499Z,991.30
2018-06-02T07:53:41.293Z,991.33
2018-06-02T07:54:48.235Z,991.30
2018-06-02T07:55:55.039Z,991.28
2018-06-02T07:57:01.785Z,991.23
2018-06-02T07:58:08.618Z,991.29
2018-06-02T07:59:15.350Z,991.22
2018-06-02T08:00:22.086Z,991.25
2018-06-02T08:01:28.832Z,991.32
2018-06-02T08:02:35.980Z,991.32
2018-06-02T08:03:42.321Z,991.27
2018-06-02T08:04:54.164Z,991.31
2018-06-02T08:06:00.930Z,991.30
2018-06-02T08:07:02.773Z,991.30
2018-06-02T08:08:09.755Z,991.36
2018-06-02T08:09:16.595Z,991.36
2018-06-02T08:10:24.046Z,991.33
2018-06-02T08:11:30.419Z,991.32
2018-06-02T08:12:37.378Z,991.31
2018-06-02T08:13:44.183Z,991.26
2018-06-02T08:14:50.996Z,991.29
2018-06-02T08:15:57.745Z,991.26
2018-06-02T08:17:04.818Z,991.15
2018-06-02T08:18:11.623Z,991.29
2018-06-02T08:19:18.495Z,991.32
2018-06-02T08:20:25.265Z,991.34
2018-06-02T08:21:32.246Z,991.32
2018-06-02T08:22:39.340Z,991.26
2018-06-02T08:23:46.168Z,991.35
2018-06-02T08:24:53.008Z,991.24
2018-06-02T08:25:59.819Z,991.29
2018-06-02T08:27:06.592Z,991.27
2018-06-02T08:28:13.336Z,991.26
2018-06-02T08:29:20.305Z,991.30
2018-06-02T08:30:27.101Z,991.31
2018-06-02T08:31:33.970Z,991.32
2018-06-02T08:32:40.841Z,991.34
2018-06-02T08:33:47.627Z,991.34
2018-06-02T08:34:54.492Z,991.32
2018-06-02T08:36:01.366Z,991.32
2018-06-02T08:37:08.190Z,991.33
2018-06-02T08:38:14.999Z,991.38
2018-06-02T08:39:21.757Z,991.33
2018-06-02T08:40:28.503Z,991.28
2018-06-02T08:41:35.296Z,991.24
2018-06-02T08:42:42.094Z,991.23
2018-06-02T08:43:48.844Z,991.29
2018-06-02T08:44:55.611Z,991.26
2018-06-02T08:46:02.339Z,991.22
2018-06-02T08:47:09.095Z,991.23
2018-06-02T08:48:15.882Z,991.25
2018-06-02T08:49:22.627Z,991.33
2018-06-02T08:50:29.478Z,991.33
2018-06-02T08:51:36.376Z,991.34
2018-06-02T08:52:43.173Z,991.39
2018-06-02T08:53:50.044Z,991.40
2018-06-02T08:54:56.888Z,991.35
2018-06-02T08:56:03.699Z,991.39
2018-06-02T08:57:10.466Z,991.38
2018-06-02T08:58:17.270Z,991.38
2018-06-02T08:59:26.029Z,991.32
2018-06-02T09:00:30.881Z,991.33
2018-06-02T09:01:37.707Z,991.31
2018-06-02T09:02:44.519Z,991.32
2018-06-02T09:03:51.373Z,991.39
2018-06-02T09:05:01.026Z,991.37
2018-06-02T09:06:05.247Z,991.40
2018-06-02T09:07:12.079Z,991.32
2018-06-02T09:08:18.927Z,991.34
2018-06-02T09:09:25.722Z,991.37
2018-06-02T09:10:32.570Z,991.32
2018-06-02T09:11:39.612Z,991.32
2018-06-02T09:12:46.651Z,991.39
2018-06-02T09:13:53.527Z,991.38
2018-06-02T09:15:00.463Z,991.37
2018-06-02T09:16:07.260Z,991.37
2018-06-02T09:17:14.167Z,991.35
2018-06-02T09:18:20.807Z,991.42
2018-06-02T09:19:27.587Z,991.40
2018-06-02T09:20:34.520Z,991.41
2018-06-02T09:21:41.621Z,991.40
2018-06-02T09:22:47.982Z,991.40
2018-06-02T09:23:54.918Z,991.37
2018-06-02T09:25:01.854Z,991.45
2018-06-02T09:26:08.687Z,991.44
2018-06-02T09:27:15.762Z,991.39
2018-06-02T09:28:22.355Z,991.37
2018-06-02T09:29:29.189Z,991.36
2018-06-02T09:30:36.049Z,991.36
2018-06-02T09:31:42.979Z,991.38
2018-06-02T09:32:49.819Z,991.34
2018-06-02T09:33:56.684Z,991.32
2018-06-02T09:35:03.376Z,991.28
2018-06-02T09:36:10.188Z,991.35
2018-06-02T09:37:17.202Z,991.31
2018-06-02T09:38:24.003Z,991.31
2018-06-02T09:39:30.776Z,991.31
2018-06-02T09:40:37.551Z,991.33
2018-06-02T09:41:47.270Z,991.30
2018-06-02T09:42:51.455Z,991.34
2018-06-02T09:43:58.448Z,991.32
2018-06-02T09:45:05.327Z,991.35
2018-06-02T09:46:12.892Z,991.31
2018-06-02T09:47:19.215Z,991.24
2018-06-02T09:48:26.106Z,991.26
2018-06-02T09:49:33.111Z,991.32
2018-06-02T09:50:40.037Z,991.30
2018-06-02T09:51:46.875Z,991.25
2018-06-02T09:52:55.416Z,991.25
2018-06-02T09:54:00.730Z,991.20
2018-06-02T09:55:07.553Z,991.22
2018-06-02T09:56:16.284Z,991.27
2018-06-02T09:57:22.022Z,991.27
2018-06-02T09:58:28.516Z,991.14
2018-06-02T09:59:35.556Z,991.21
2018-06-02T10:00:42.475Z,991.19
2018-06-02T10:01:49.299Z,991.20
2018-06-02T10:02:57.149Z,991.23
2018-06-02T10:04:03.235Z,991.23
2018-06-02T10:05:10.097Z,991.22
2018-06-02T10:06:16.960Z,991.14
2018-06-02T10:07:23.796Z,991.14
2018-06-02T10:09:56.442Z,991.22
2018-06-02T10:11:03.057Z,991.16
2018-06-02T10:12:11.040Z,991.08
2018-06-02T10:13:16.934Z,991.12
2018-06-02T10:14:23.779Z,991.13
2018-06-02T10:15:30.670Z,991.09
2018-06-02T10:16:37.477Z,991.07
2018-06-02T10:17:44.249Z,991.04
2018-06-02T10:18:51.145Z,991.05
2018-06-02T10:19:58.055Z,991.08
2018-06-02T10:21:06.773Z,991.07
2018-06-02T10:22:11.686Z,991.14
2018-06-02T10:23:25.608Z,991.03
2018-06-02T10:24:25.651Z,991.08
2018-06-02T10:25:34.476Z,991.04
2018-06-02T10:26:39.377Z,991.09
2018-06-02T10:27:47.996Z,991.06
2018-06-02T10:28:53.138Z,991.15
2018-06-02T10:30:00.039Z,991.05
2018-06-02T10:31:07.027Z,991.11
2018-06-02T10:32:14.140Z,991.05
2018-06-02T10:33:21.074Z,991.08
2018-06-02T10:34:29.574Z,991.09
2018-06-02T10:35:35.008Z,991.12
2018-06-02T10:36:41.873Z,991.13
2018-06-02T10:37:48.737Z,991.17
2018-06-02T10:38:55.855Z,991.13
2018-06-02T10:40:02.645Z,991.19
2018-06-02T10:41:09.885Z,991.15
2018-06-02T10:42:16.264Z,991.17
2018-06-02T10:43:26.270Z,991.19
2018-06-02T10:44:36.188Z,991.19
2018-06-02T10:51:35.158Z,991.22
2018-06-02T10:52:41.127Z,991.23
2018-06-02T10:54:59.711Z,991.28
2018-06-02T10:57:10.327Z,991.24
2018-06-02T10:58:16.151Z,991.33
2018-06-02T10:59:38.433Z,991.27
2018-06-02T11:00:30.239Z,991.25
2018-06-02T11:01:38.300Z,991.26
2018-06-02T11:02:49.888Z,991.28
2018-06-02T11:05:01.958Z,991.21
2018-06-02T11:06:04.959Z,991.14
2018-06-02T11:07:11.907Z,991.09
2018-06-02T11:08:20.845Z,991.17
2018-06-02T11:09:25.716Z,991.13
2018-06-02T11:10:33.203Z,991.13
2018-06-02T11:11:39.740Z,991.10
2018-06-02T11:12:47.909Z,991.10
2018-06-02T11:13:53.483Z,991.10
2018-06-02T11:15:02.655Z,991.17
2018-06-02T11:16:08.555Z,991.15
2018-06-02T11:17:13.959Z,991.10
2018-06-02T11:18:20.758Z,991.09
2018-06-02T11:19:27.818Z,991.04
2018-06-02T11:20:34.526Z,991.11
2018-06-02T11:21:42.620Z,991.07
2018-06-02T11:23:55.574Z,991.16
2018-06-02T11:25:03.417Z,991.06
2018-06-02T11:26:09.259Z,991.19
2018-06-02T11:27:15.823Z,991.12
2018-06-02T11:28:22.858Z,991.12
2018-06-02T11:29:29.733Z,991.08
2018-06-02T11:30:36.988Z,991.22
2018-06-02T11:31:45.732Z,991.19
2018-06-02T11:32:51.323Z,991.25
2018-06-02T11:33:57.969Z,991.20
2018-06-02T11:35:12.095Z,991.18
2018-06-02T11:36:13.297Z,991.19
2018-06-02T11:37:18.791Z,991.18
2018-06-02T11:38:25.233Z,991.18
2018-06-02T11:39:32.143Z,991.18
2018-06-02T11:40:38.988Z,991.16
2018-06-02T11:41:47.773Z,991.21
2018-06-02T11:42:53.462Z,991.23
2018-06-02T11:44:00.364Z,991.19
2018-06-02T11:49:11.602Z,991.21
2018-06-02T11:50:16.298Z,991.19
2018-06-02T11:51:29.037Z,991.19
2018-06-02T11:52:30.291Z,991.17
2018-06-02T11:53:37.223Z,991.17
2018-06-02T11:54:44.373Z,991.19
2018-06-02T11:55:51.512Z,991.23
2018-06-02T11:56:58.159Z,991.21
2018-06-02T12:00:10.963Z,991.26
2018-06-02T12:09:26.761Z,991.12
2018-06-02T12:11:39.507Z,991.04
2018-06-02T12:13:53.360Z,991.17
2018-06-02T12:15:00.477Z,991.11
2018-06-02T12:16:09.288Z,991.13
2018-06-02T12:20:36.320Z,991.14
2018-06-02T12:21:43.727Z,991.16
2018-06-02T12:24:00.855Z,991.12
2018-06-02T12:25:02.738Z,991.14
2018-06-02T12:26:10.326Z,991.16
2018-06-02T12:27:16.591Z,991.05
2018-06-02T12:28:23.636Z,991.08
2018-06-02T12:29:30.366Z,991.07
2018-06-02T12:30:37.114Z,991.07
2018-06-02T12:31:46.098Z,991.15
2018-06-02T12:32:50.564Z,991.07
2018-06-02T12:33:57.343Z,991.10
2018-06-02T12:35:04.183Z,991.13
2018-06-02T12:36:11.451Z,991.04
2018-06-02T12:41:15.771Z,990.96
2018-06-02T12:42:22.828Z,991.03
2018-06-02T12:43:30.837Z,991.08
2018-06-02T12:44:36.517Z,991.08
2018-06-02T12:45:45.372Z,991.07
2018-06-02T12:46:50.140Z,991.09
2018-06-02T12:52:48.302Z,991.05
2018-06-02T12:55:02.513Z,991.04
2018-06-02T12:57:16.383Z,991.03
2018-06-02T12:58:39.328Z,991.04
2018-06-02T13:01:02.060Z,991.07
2018-06-02T13:02:07.461Z,991.07
2018-06-02T13:03:14.541Z,991.09
2018-06-02T13:04:21.172Z,991.03
2018-06-02T13:05:28.037Z,991.10
2018-06-02T13:06:34.997Z,991.12
2018-06-02T13:07:42.161Z,991.03
2018-06-02T13:08:49.036Z,991.11
2018-06-02T13:09:58.349Z,991.15
2018-06-02T13:11:02.977Z,991.05
2018-06-02T13:12:09.568Z,991.07
2018-06-02T13:13:16.446Z,990.91
2018-06-02T13:14:23.366Z,991.07
2018-06-02T13:15:30.354Z,991.03
2018-06-02T13:16:37.397Z,990.94
2018-06-02T13:17:44.577Z,990.93
2018-06-02T13:18:51.413Z,990.96
2018-06-02T13:19:58.308Z,990.96
2018-06-02T13:21:05.142Z,990.95
2018-06-02T13:22:11.996Z,990.92
2018-06-02T13:23:18.908Z,990.93
2018-06-02T13:24:25.914Z,990.94
2018-06-02T13:25:32.647Z,990.94
2018-06-02T13:26:39.484Z,990.94
2018-06-02T13:27:47.266Z,990.93
2018-06-02T13:28:53.530Z,990.95
2018-06-02T13:30:00.413Z,990.92
2018-06-02T13:31:07.459Z,990.92
2018-06-02T13:32:14.300Z,990.93
2018-06-02T13:33:21.196Z,990.83
2018-06-02T13:34:28.085Z,990.90
2018-06-02T13:35:35.023Z,990.94
2018-06-02T13:36:41.830Z,990.93
2018-06-02T13:37:48.747Z,990.86
2018-06-02T13:38:55.672Z,990.93
2018-06-02T13:40:02.797Z,990.91
2018-06-02T13:41:09.465Z,990.92
2018-06-02T13:42:16.326Z,990.84
2018-06-02T13:43:23.221Z,990.86
2018-06-02T13:44:30.054Z,990.93
2018-06-02T13:45:38.790Z,990.85
2018-06-02T13:46:45.374Z,990.86
2018-06-02T13:47:50.874Z,990.88
2018-06-02T13:48:57.810Z,990.93
2018-06-02T13:50:04.648Z,990.95
2018-06-02T13:51:11.362Z,990.85
2018-06-02T13:52:18.437Z,990.87
2018-06-02T13:53:25.255Z,990.87
2018-06-02T13:54:32.544Z,990.82
2018-06-02T13:55:39.009Z,990.93
2018-06-02T13:56:45.870Z,990.83
2018-06-02T13:57:52.657Z,990.79
2018-06-02T13:58:59.566Z,990.84
2018-06-02T14:00:06.500Z,990.83
2018-06-02T14:01:13.563Z,990.87
2018-06-02T14:02:20.424Z,990.78
2018-06-02T14:03:27.315Z,990.86
2018-06-02T14:04:34.179Z,990.81
2018-06-02T14:05:41.182Z,990.83
2018-06-02T14:06:47.888Z,990.73
2018-06-02T14:07:54.695Z,990.79
2018-06-02T14:09:04.899Z,990.76
2018-06-02T14:11:19.207Z,990.74
2018-06-02T14:12:25.931Z,990.73
2018-06-02T14:13:32.845Z,990.69
2018-06-02T14:14:39.614Z,990.69
2018-06-02T14:16:53.735Z,990.73
2018-06-02T14:18:00.620Z,990.76
2018-06-02T14:19:07.426Z,990.69
2018-06-02T14:20:14.252Z,990.72
2018-06-02T14:21:21.162Z,990.73
2018-06-02T14:22:28.137Z,990.70
2018-06-02T14:23:35.237Z,990.69
2018-06-02T14:24:41.986Z,990.68
2018-06-02T14:25:48.868Z,990.71
2018-06-02T14:26:55.761Z,990.68
2018-06-02T14:28:02.662Z,990.78
2018-06-02T14:29:09.716Z,990.74
2018-06-02T14:30:16.528Z,990.70
2018-06-02T14:31:23.514Z,990.69
2018-06-02T14:32:30.557Z,990.67
2018-06-02T14:33:37.129Z,990.71
2018-06-02T14:34:44.231Z,990.73
2018-06-02T14:35:51.012Z,990.71
2018-06-02T14:36:58.462Z,990.72
2018-06-02T14:38:05.126Z,990.62
2018-06-02T14:39:11.472Z,990.64
2018-06-02T14:40:18.412Z,990.75
2018-06-02T14:41:25.332Z,990.73
2018-06-02T14:42:32.212Z,990.76